sensor_id;sensor_type;location;lat;lon;timestamp;P1;durP1;ratioP1;P2;durP2;ratioP2
44139;SDS011;29803;51.048;4.686;2023-10-19T00:02:02;5.85;;;0.80;;
44139;SDS011;29803;51.048;4.686;2023-10-19T00:04:33;3.00;;;1.08;;
44139;SDS011;29803;51.048;4.686;2023-10-19T00:07:06;6.30;;;1.15;;
44139;SDS011;29803;51.048;4.686;2023-10-19T00:09:38;8.88;;;0.82;;
44139;SDS011;29803;51.048;4.686;2023-10-19T00:12:09;5.53;;;1.20;;
44139;SDS011;29803;51.048;4.686;2023-10-19T00:14:40;3.67;;;0.70;;
44139;SDS011;29803;51.048;4.686;2023-10-19T00:17:11;7.10;;;0.98;;
44139;SDS011;29803;51.048;4.686;2023-10-19T00:19:43;4.72;;;0.80;;
44139;SDS011;29803;51.048;4.686;2023-10-19T00:22:27;4.15;;;0.80;;
44139;SDS011;29803;51.048;4.686;2023-10-19T00:25:01;3.47;;;0.80;;
44139;SDS011;29803;51.048;4.686;2023-10-19T00:27:33;5.85;;;0.90;;
44139;SDS011;29803;51.048;4.686;2023-10-19T00:30:05;4.47;;;0.80;;
44139;SDS011;29803;51.048;4.686;2023-10-19T00:32:36;4.15;;;1.30;;
44139;SDS011;29803;51.048;4.686;2023-10-19T00:35:08;2.65;;;1.00;;
44139;SDS011;29803;51.048;4.686;2023-10-19T00:37:57;6.55;;;0.90;;
44139;SDS011;29803;51.048;4.686;2023-10-19T00:40:42;6.43;;;1.17;;
44139;SDS011;29803;51.048;4.686;2023-10-19T00:43:26;4.75;;;1.42;;
44139;SDS011;29803;51.048;4.686;2023-10-19T00:45:59;6.05;;;1.10;;
44139;SDS011;29803;51.048;4.686;2023-10-19T00:48:33;5.13;;;0.80;;
44139;SDS011;29803;51.048;4.686;2023-10-19T00:51:04;3.42;;;0.68;;
44139;SDS011;29803;51.048;4.686;2023-10-19T00:53:43;3.30;;;1.13;;
44139;SDS011;29803;51.048;4.686;2023-10-19T00:56:14;10.63;;;0.90;;
44139;SDS011;29803;51.048;4.686;2023-10-19T00:58:48;3.38;;;0.70;;
44139;SDS011;29803;51.048;4.686;2023-10-19T01:03:55;6.38;;;0.93;;
44139;SDS011;29803;51.048;4.686;2023-10-19T01:06:27;4.07;;;1.38;;
44139;SDS011;29803;51.048;4.686;2023-10-19T01:09:02;8.00;;;1.80;;
44139;SDS011;29803;51.048;4.686;2023-10-19T01:11:33;6.72;;;1.40;;
44139;SDS011;29803;51.048;4.686;2023-10-19T01:14:17;8.85;;;2.00;;
44139;SDS011;29803;51.048;4.686;2023-10-19T01:16:52;6.53;;;2.25;;
44139;SDS011;29803;51.048;4.686;2023-10-19T01:19:36;4.75;;;1.60;;
44139;SDS011;29803;51.048;4.686;2023-10-19T01:22:24;6.72;;;2.28;;
44139;SDS011;29803;51.048;4.686;2023-10-19T01:24:56;4.85;;;1.83;;
44139;SDS011;29803;51.048;4.686;2023-10-19T01:27:28;9.70;;;2.35;;
44139;SDS011;29803;51.048;4.686;2023-10-19T01:29:59;5.63;;;1.88;;
44139;SDS011;29803;51.048;4.686;2023-10-19T01:32:32;6.38;;;2.03;;
44139;SDS011;29803;51.048;4.686;2023-10-19T01:35:02;7.40;;;2.00;;
44139;SDS011;29803;51.048;4.686;2023-10-19T01:37:33;5.75;;;1.48;;
44139;SDS011;29803;51.048;4.686;2023-10-19T01:40:08;8.80;;;1.88;;
44139;SDS011;29803;51.048;4.686;2023-10-19T01:42:38;8.57;;;2.15;;
44139;SDS011;29803;51.048;4.686;2023-10-19T01:45:09;10.70;;;1.77;;
44139;SDS011;29803;51.048;4.686;2023-10-19T01:47:41;8.05;;;2.15;;
44139;SDS011;29803;51.048;4.686;2023-10-19T01:50:13;7.13;;;1.50;;
44139;SDS011;29803;51.048;4.686;2023-10-19T01:52:49;3.53;;;1.40;;
44139;SDS011;29803;51.048;4.686;2023-10-19T01:55:21;5.22;;;1.58;;
44139;SDS011;29803;51.048;4.686;2023-10-19T01:57:52;4.65;;;1.85;;
44139;SDS011;29803;51.048;4.686;2023-10-19T02:00:22;5.25;;;1.50;;
44139;SDS011;29803;51.048;4.686;2023-10-19T02:02:53;6.30;;;1.73;;
44139;SDS011;29803;51.048;4.686;2023-10-19T02:05:24;6.13;;;1.48;;
44139;SDS011;29803;51.048;4.686;2023-10-19T02:08:03;5.47;;;1.42;;
44139;SDS011;29803;51.048;4.686;2023-10-19T02:10:34;6.63;;;1.63;;
44139;SDS011;29803;51.048;4.686;2023-10-19T02:13:07;7.55;;;1.10;;
44139;SDS011;29803;51.048;4.686;2023-10-19T02:15:38;6.18;;;1.40;;
44139;SDS011;29803;51.048;4.686;2023-10-19T02:18:09;4.50;;;1.10;;
44139;SDS011;29803;51.048;4.686;2023-10-19T02:20:40;9.25;;;1.13;;
44139;SDS011;29803;51.048;4.686;2023-10-19T02:23:11;5.47;;;1.10;;
44139;SDS011;29803;51.048;4.686;2023-10-19T02:25:42;10.40;;;1.00;;
44139;SDS011;29803;51.048;4.686;2023-10-19T02:28:13;5.05;;;1.23;;
44139;SDS011;29803;51.048;4.686;2023-10-19T02:30:43;3.85;;;0.93;;
44139;SDS011;29803;51.048;4.686;2023-10-19T02:33:14;6.65;;;1.60;;
44139;SDS011;29803;51.048;4.686;2023-10-19T02:35:45;13.05;;;1.88;;
44139;SDS011;29803;51.048;4.686;2023-10-19T02:38:17;3.20;;;0.98;;
44139;SDS011;29803;51.048;4.686;2023-10-19T02:40:48;5.97;;;1.58;;
44139;SDS011;29803;51.048;4.686;2023-10-19T02:43:19;8.15;;;1.15;;
44139;SDS011;29803;51.048;4.686;2023-10-19T02:45:49;9.57;;;1.63;;
44139;SDS011;29803;51.048;4.686;2023-10-19T02:48:21;6.20;;;1.25;;
44139;SDS011;29803;51.048;4.686;2023-10-19T02:50:52;4.55;;;0.88;;
44139;SDS011;29803;51.048;4.686;2023-10-19T02:53:22;5.65;;;1.02;;
44139;SDS011;29803;51.048;4.686;2023-10-19T02:55:54;11.10;;;1.08;;
44139;SDS011;29803;51.048;4.686;2023-10-19T02:58:26;5.57;;;1.40;;
44139;SDS011;29803;51.048;4.686;2023-10-19T03:00:58;7.50;;;0.98;;
44139;SDS011;29803;51.048;4.686;2023-10-19T03:03:30;9.77;;;1.52;;
44139;SDS011;29803;51.048;4.686;2023-10-19T03:06:01;7.50;;;1.23;;
44139;SDS011;29803;51.048;4.686;2023-10-19T03:08:33;9.32;;;1.38;;
44139;SDS011;29803;51.048;4.686;2023-10-19T03:11:05;5.10;;;1.40;;
44139;SDS011;29803;51.048;4.686;2023-10-19T03:13:37;8.43;;;1.20;;
44139;SDS011;29803;51.048;4.686;2023-10-19T03:16:07;5.40;;;1.30;;
44139;SDS011;29803;51.048;4.686;2023-10-19T03:18:38;12.35;;;1.50;;
44139;SDS011;29803;51.048;4.686;2023-10-19T03:21:09;7.20;;;2.10;;
44139;SDS011;29803;51.048;4.686;2023-10-19T03:23:41;6.22;;;1.33;;
44139;SDS011;29803;51.048;4.686;2023-10-19T03:26:11;7.43;;;1.60;;
44139;SDS011;29803;51.048;4.686;2023-10-19T03:28:58;9.13;;;1.75;;
44139;SDS011;29803;51.048;4.686;2023-10-19T03:34:07;13.10;;;1.58;;
44139;SDS011;29803;51.048;4.686;2023-10-19T03:36:38;8.65;;;1.70;;
44139;SDS011;29803;51.048;4.686;2023-10-19T03:39:09;9.18;;;1.35;;
44139;SDS011;29803;51.048;4.686;2023-10-19T03:41:42;15.80;;;2.00;;
44139;SDS011;29803;51.048;4.686;2023-10-19T03:44:13;6.80;;;1.33;;
44139;SDS011;29803;51.048;4.686;2023-10-19T03:46:54;16.98;;;1.90;;
44139;SDS011;29803;51.048;4.686;2023-10-19T03:49:27;10.90;;;1.52;;
44139;SDS011;29803;51.048;4.686;2023-10-19T03:52:03;12.27;;;2.05;;
44139;SDS011;29803;51.048;4.686;2023-10-19T03:54:40;8.75;;;1.70;;
44139;SDS011;29803;51.048;4.686;2023-10-19T03:57:13;6.13;;;1.50;;
44139;SDS011;29803;51.048;4.686;2023-10-19T03:59:49;15.25;;;1.75;;
44139;SDS011;29803;51.048;4.686;2023-10-19T04:02:20;9.70;;;1.65;;
44139;SDS011;29803;51.048;4.686;2023-10-19T04:04:51;5.10;;;1.40;;
44139;SDS011;29803;51.048;4.686;2023-10-19T04:07:22;11.30;;;1.73;;
44139;SDS011;29803;51.048;4.686;2023-10-19T04:09:55;7.22;;;2.17;;
44139;SDS011;29803;51.048;4.686;2023-10-19T04:12:29;12.43;;;1.95;;
44139;SDS011;29803;51.048;4.686;2023-10-19T04:15:02;7.22;;;1.35;;
44139;SDS011;29803;51.048;4.686;2023-10-19T04:17:41;11.00;;;1.70;;
44139;SDS011;29803;51.048;4.686;2023-10-19T04:20:13;9.57;;;1.60;;
44139;SDS011;29803;51.048;4.686;2023-10-19T04:22:48;9.35;;;1.90;;
44139;SDS011;29803;51.048;4.686;2023-10-19T04:25:20;11.70;;;1.88;;
44139;SDS011;29803;51.048;4.686;2023-10-19T04:27:55;14.38;;;2.63;;
44139;SDS011;29803;51.048;4.686;2023-10-19T04:30:27;10.15;;;1.67;;
44139;SDS011;29803;51.048;4.686;2023-10-19T04:32:57;12.70;;;1.98;;
44139;SDS011;29803;51.048;4.686;2023-10-19T04:35:28;10.85;;;1.90;;
44139;SDS011;29803;51.048;4.686;2023-10-19T04:38:00;8.80;;;1.80;;
44139;SDS011;29803;51.048;4.686;2023-10-19T04:40:31;23.08;;;2.70;;
44139;SDS011;29803;51.048;4.686;2023-10-19T04:43:02;7.00;;;1.75;;
44139;SDS011;29803;51.048;4.686;2023-10-19T04:45:39;10.77;;;1.85;;
44139;SDS011;29803;51.048;4.686;2023-10-19T04:48:10;10.02;;;1.92;;
44139;SDS011;29803;51.048;4.686;2023-10-19T04:50:41;9.32;;;1.90;;
44139;SDS011;29803;51.048;4.686;2023-10-19T04:53:12;15.27;;;2.13;;
44139;SDS011;29803;51.048;4.686;2023-10-19T04:55:44;14.93;;;2.97;;
44139;SDS011;29803;51.048;4.686;2023-10-19T04:58:15;11.30;;;2.38;;
44139;SDS011;29803;51.048;4.686;2023-10-19T05:00:47;13.73;;;2.28;;
44139;SDS011;29803;51.048;4.686;2023-10-19T05:03:19;9.10;;;1.90;;
44139;SDS011;29803;51.048;4.686;2023-10-19T05:05:49;7.15;;;1.83;;
44139;SDS011;29803;51.048;4.686;2023-10-19T05:08:20;13.93;;;2.42;;
44139;SDS011;29803;51.048;4.686;2023-10-19T05:10:54;7.43;;;2.03;;
44139;SDS011;29803;51.048;4.686;2023-10-19T05:13:25;12.55;;;2.45;;
44139;SDS011;29803;51.048;4.686;2023-10-19T05:15:56;9.95;;;1.95;;
44139;SDS011;29803;51.048;4.686;2023-10-19T05:18:29;13.18;;;1.75;;
44139;SDS011;29803;51.048;4.686;2023-10-19T05:20:59;8.63;;;1.95;;
44139;SDS011;29803;51.048;4.686;2023-10-19T05:23:30;15.98;;;2.42;;
44139;SDS011;29803;51.048;4.686;2023-10-19T05:26:02;10.70;;;2.10;;
44139;SDS011;29803;51.048;4.686;2023-10-19T05:28:34;12.80;;;2.28;;
44139;SDS011;29803;51.048;4.686;2023-10-19T05:31:05;10.80;;;2.40;;
44139;SDS011;29803;51.048;4.686;2023-10-19T05:33:35;10.35;;;2.28;;
44139;SDS011;29803;51.048;4.686;2023-10-19T05:36:06;8.73;;;1.73;;
44139;SDS011;29803;51.048;4.686;2023-10-19T05:38:36;14.82;;;2.35;;
44139;SDS011;29803;51.048;4.686;2023-10-19T05:41:07;19.15;;;2.35;;
44139;SDS011;29803;51.048;4.686;2023-10-19T05:43:38;10.73;;;2.30;;
44139;SDS011;29803;51.048;4.686;2023-10-19T05:46:09;11.98;;;1.98;;
44139;SDS011;29803;51.048;4.686;2023-10-19T05:48:40;20.88;;;2.90;;
44139;SDS011;29803;51.048;4.686;2023-10-19T05:51:11;13.75;;;2.65;;
44139;SDS011;29803;51.048;4.686;2023-10-19T05:53:41;15.20;;;2.83;;
44139;SDS011;29803;51.048;4.686;2023-10-19T05:56:12;9.60;;;2.05;;
44139;SDS011;29803;51.048;4.686;2023-10-19T05:58:42;7.50;;;2.25;;
44139;SDS011;29803;51.048;4.686;2023-10-19T06:01:14;14.50;;;2.28;;
44139;SDS011;29803;51.048;4.686;2023-10-19T06:03:45;9.77;;;2.38;;
44139;SDS011;29803;51.048;4.686;2023-10-19T06:06:16;9.07;;;2.00;;
44139;SDS011;29803;51.048;4.686;2023-10-19T06:08:47;18.40;;;2.97;;
44139;SDS011;29803;51.048;4.686;2023-10-19T06:11:17;18.33;;;2.35;;
44139;SDS011;29803;51.048;4.686;2023-10-19T06:13:48;12.57;;;2.83;;
44139;SDS011;29803;51.048;4.686;2023-10-19T06:16:19;9.88;;;2.22;;
44139;SDS011;29803;51.048;4.686;2023-10-19T06:18:51;12.90;;;2.15;;
44139;SDS011;29803;51.048;4.686;2023-10-19T06:21:21;13.15;;;2.60;;
44139;SDS011;29803;51.048;4.686;2023-10-19T06:23:53;13.85;;;2.08;;
44139;SDS011;29803;51.048;4.686;2023-10-19T06:26:24;11.00;;;2.22;;
44139;SDS011;29803;51.048;4.686;2023-10-19T06:28:55;24.85;;;3.92;;
44139;SDS011;29803;51.048;4.686;2023-10-19T06:31:29;13.75;;;2.97;;
44139;SDS011;29803;51.048;4.686;2023-10-19T06:33:59;13.13;;;2.28;;
44139;SDS011;29803;51.048;4.686;2023-10-19T06:36:30;9.93;;;2.08;;
44139;SDS011;29803;51.048;4.686;2023-10-19T06:39:00;14.80;;;2.33;;
44139;SDS011;29803;51.048;4.686;2023-10-19T06:41:36;13.38;;;2.35;;
44139;SDS011;29803;51.048;4.686;2023-10-19T06:44:06;12.98;;;2.10;;
44139;SDS011;29803;51.048;4.686;2023-10-19T06:46:37;16.67;;;2.70;;
44139;SDS011;29803;51.048;4.686;2023-10-19T06:49:09;11.50;;;2.55;;
44139;SDS011;29803;51.048;4.686;2023-10-19T06:51:39;15.60;;;2.58;;
44139;SDS011;29803;51.048;4.686;2023-10-19T06:54:10;14.73;;;2.55;;
44139;SDS011;29803;51.048;4.686;2023-10-19T06:56:43;11.27;;;2.28;;
44139;SDS011;29803;51.048;4.686;2023-10-19T06:59:15;15.35;;;3.08;;
44139;SDS011;29803;51.048;4.686;2023-10-19T07:01:47;10.05;;;2.55;;
44139;SDS011;29803;51.048;4.686;2023-10-19T07:04:18;10.10;;;2.50;;
44139;SDS011;29803;51.048;4.686;2023-10-19T07:06:48;11.38;;;3.00;;
44139;SDS011;29803;51.048;4.686;2023-10-19T07:09:20;14.43;;;3.25;;
44139;SDS011;29803;51.048;4.686;2023-10-19T07:11:51;15.02;;;2.58;;
44139;SDS011;29803;51.048;4.686;2023-10-19T07:14:23;12.30;;;2.95;;
44139;SDS011;29803;51.048;4.686;2023-10-19T07:16:53;14.05;;;2.97;;
44139;SDS011;29803;51.048;4.686;2023-10-19T07:19:24;13.10;;;2.40;;
44139;SDS011;29803;51.048;4.686;2023-10-19T07:21:54;15.57;;;2.75;;
44139;SDS011;29803;51.048;4.686;2023-10-19T07:24:27;12.15;;;2.45;;
44139;SDS011;29803;51.048;4.686;2023-10-19T07:26:58;16.92;;;2.40;;
44139;SDS011;29803;51.048;4.686;2023-10-19T07:29:34;14.75;;;3.00;;
44139;SDS011;29803;51.048;4.686;2023-10-19T07:32:06;10.65;;;2.17;;
44139;SDS011;29803;51.048;4.686;2023-10-19T07:34:36;15.00;;;2.45;;
44139;SDS011;29803;51.048;4.686;2023-10-19T07:37:07;11.60;;;2.22;;
44139;SDS011;29803;51.048;4.686;2023-10-19T07:39:38;12.45;;;2.10;;
44139;SDS011;29803;51.048;4.686;2023-10-19T07:42:12;11.97;;;2.03;;
44139;SDS011;29803;51.048;4.686;2023-10-19T07:44:44;9.90;;;1.70;;
44139;SDS011;29803;51.048;4.686;2023-10-19T07:47:15;10.40;;;2.30;;
44139;SDS011;29803;51.048;4.686;2023-10-19T07:49:46;12.32;;;2.00;;
44139;SDS011;29803;51.048;4.686;2023-10-19T07:52:18;10.18;;;2.03;;
44139;SDS011;29803;51.048;4.686;2023-10-19T07:54:49;11.05;;;2.03;;
44139;SDS011;29803;51.048;4.686;2023-10-19T07:57:19;11.80;;;2.08;;
44139;SDS011;29803;51.048;4.686;2023-10-19T07:59:50;10.90;;;2.10;;
44139;SDS011;29803;51.048;4.686;2023-10-19T08:02:21;15.10;;;2.65;;
44139;SDS011;29803;51.048;4.686;2023-10-19T08:04:51;16.02;;;2.42;;
44139;SDS011;29803;51.048;4.686;2023-10-19T08:07:22;13.68;;;1.98;;
44139;SDS011;29803;51.048;4.686;2023-10-19T08:09:56;15.27;;;2.83;;
44139;SDS011;29803;51.048;4.686;2023-10-19T08:12:28;16.33;;;2.53;;
44139;SDS011;29803;51.048;4.686;2023-10-19T08:15:03;12.88;;;2.42;;
44139;SDS011;29803;51.048;4.686;2023-10-19T08:17:34;14.38;;;2.65;;
44139;SDS011;29803;51.048;4.686;2023-10-19T08:20:05;13.68;;;2.65;;
44139;SDS011;29803;51.048;4.686;2023-10-19T08:22:39;11.02;;;2.33;;
44139;SDS011;29803;51.048;4.686;2023-10-19T08:25:10;8.20;;;1.83;;
44139;SDS011;29803;51.048;4.686;2023-10-19T08:27:45;13.23;;;2.45;;
44139;SDS011;29803;51.048;4.686;2023-10-19T08:30:19;9.70;;;1.98;;
44139;SDS011;29803;51.048;4.686;2023-10-19T08:32:51;10.30;;;2.03;;
44139;SDS011;29803;51.048;4.686;2023-10-19T08:35:22;17.90;;;2.60;;
44139;SDS011;29803;51.048;4.686;2023-10-19T08:37:58;14.50;;;1.92;;
44139;SDS011;29803;51.048;4.686;2023-10-19T08:40:29;10.43;;;2.58;;
44139;SDS011;29803;51.048;4.686;2023-10-19T08:43:00;15.45;;;2.47;;
44139;SDS011;29803;51.048;4.686;2023-10-19T08:45:31;12.25;;;2.17;;
44139;SDS011;29803;51.048;4.686;2023-10-19T08:48:04;14.93;;;2.35;;
44139;SDS011;29803;51.048;4.686;2023-10-19T08:50:35;11.63;;;2.63;;
44139;SDS011;29803;51.048;4.686;2023-10-19T08:53:07;19.63;;;3.25;;
44139;SDS011;29803;51.048;4.686;2023-10-19T08:55:39;13.20;;;2.78;;
44139;SDS011;29803;51.048;4.686;2023-10-19T08:58:09;15.63;;;2.25;;
44139;SDS011;29803;51.048;4.686;2023-10-19T09:00:45;15.20;;;2.70;;
44139;SDS011;29803;51.048;4.686;2023-10-19T09:03:17;17.38;;;2.75;;
44139;SDS011;29803;51.048;4.686;2023-10-19T09:05:47;15.32;;;3.17;;
44139;SDS011;29803;51.048;4.686;2023-10-19T09:08:18;15.27;;;2.22;;
44139;SDS011;29803;51.048;4.686;2023-10-19T09:10:52;17.23;;;3.50;;
44139;SDS011;29803;51.048;4.686;2023-10-19T09:13:23;16.85;;;2.63;;
44139;SDS011;29803;51.048;4.686;2023-10-19T09:15:54;13.90;;;2.50;;
44139;SDS011;29803;51.048;4.686;2023-10-19T09:18:35;12.60;;;2.25;;
44139;SDS011;29803;51.048;4.686;2023-10-19T09:21:06;12.85;;;2.80;;
44139;SDS011;29803;51.048;4.686;2023-10-19T09:23:37;13.73;;;2.33;;
44139;SDS011;29803;51.048;4.686;2023-10-19T09:26:08;16.27;;;2.42;;
44139;SDS011;29803;51.048;4.686;2023-10-19T09:28:39;9.25;;;2.35;;
44139;SDS011;29803;51.048;4.686;2023-10-19T09:31:10;13.45;;;2.88;;
44139;SDS011;29803;51.048;4.686;2023-10-19T09:33:41;10.05;;;2.05;;
44139;SDS011;29803;51.048;4.686;2023-10-19T09:36:12;18.42;;;2.55;;
44139;SDS011;29803;51.048;4.686;2023-10-19T09:38:45;19.05;;;2.95;;
44139;SDS011;29803;51.048;4.686;2023-10-19T09:41:19;14.77;;;2.75;;
44139;SDS011;29803;51.048;4.686;2023-10-19T09:43:51;16.08;;;2.85;;
44139;SDS011;29803;51.048;4.686;2023-10-19T09:46:26;14.32;;;2.60;;
44139;SDS011;29803;51.048;4.686;2023-10-19T09:48:59;13.75;;;2.10;;
44139;SDS011;29803;51.048;4.686;2023-10-19T09:51:30;16.52;;;2.63;;
44139;SDS011;29803;51.048;4.686;2023-10-19T09:54:11;10.10;;;2.42;;
44139;SDS011;29803;51.048;4.686;2023-10-19T09:56:49;17.38;;;2.47;;
44139;SDS011;29803;51.048;4.686;2023-10-19T09:59:26;12.77;;;2.58;;
44139;SDS011;29803;51.048;4.686;2023-10-19T10:04:37;14.43;;;3.05;;
44139;SDS011;29803;51.048;4.686;2023-10-19T10:07:09;14.23;;;2.72;;
44139;SDS011;29803;51.048;4.686;2023-10-19T10:09:41;15.30;;;2.67;;
44139;SDS011;29803;51.048;4.686;2023-10-19T10:12:19;11.23;;;2.03;;
44139;SDS011;29803;51.048;4.686;2023-10-19T10:14:58;13.40;;;2.25;;
44139;SDS011;29803;51.048;4.686;2023-10-19T10:17:33;18.33;;;2.50;;
44139;SDS011;29803;51.048;4.686;2023-10-19T10:22:43;14.13;;;2.58;;
44139;SDS011;29803;51.048;4.686;2023-10-19T10:25:27;14.15;;;2.72;;
44139;SDS011;29803;51.048;4.686;2023-10-19T10:27:58;16.77;;;2.63;;
44139;SDS011;29803;51.048;4.686;2023-10-19T10:30:29;15.93;;;2.63;;
44139;SDS011;29803;51.048;4.686;2023-10-19T10:32:59;15.32;;;2.70;;
44139;SDS011;29803;51.048;4.686;2023-10-19T10:38:08;25.95;;;3.95;;
44139;SDS011;29803;51.048;4.686;2023-10-19T10:40:45;13.75;;;2.88;;
44139;SDS011;29803;51.048;4.686;2023-10-19T10:43:19;12.82;;;2.63;;
44139;SDS011;29803;51.048;4.686;2023-10-19T10:45:50;11.85;;;2.95;;
44139;SDS011;29803;51.048;4.686;2023-10-19T10:48:20;13.23;;;2.92;;
44139;SDS011;29803;51.048;4.686;2023-10-19T10:50:51;15.90;;;2.75;;
44139;SDS011;29803;51.048;4.686;2023-10-19T10:53:23;17.25;;;3.13;;
44139;SDS011;29803;51.048;4.686;2023-10-19T10:55:59;9.05;;;1.73;;
44139;SDS011;29803;51.048;4.686;2023-10-19T10:58:30;18.23;;;2.72;;
44139;SDS011;29803;51.048;4.686;2023-10-19T11:01:01;13.00;;;2.53;;
44139;SDS011;29803;51.048;4.686;2023-10-19T11:03:32;15.57;;;2.60;;
44139;SDS011;29803;51.048;4.686;2023-10-19T11:06:04;10.80;;;2.45;;
44139;SDS011;29803;51.048;4.686;2023-10-19T11:08:38;7.07;;;2.08;;
44139;SDS011;29803;51.048;4.686;2023-10-19T11:11:09;20.48;;;2.10;;
44139;SDS011;29803;51.048;4.686;2023-10-19T11:13:41;13.32;;;2.47;;
44139;SDS011;29803;51.048;4.686;2023-10-19T11:16:21;15.57;;;2.60;;
44139;SDS011;29803;51.048;4.686;2023-10-19T11:18:52;19.23;;;2.80;;
44139;SDS011;29803;51.048;4.686;2023-10-19T11:21:23;17.25;;;2.35;;
44139;SDS011;29803;51.048;4.686;2023-10-19T11:23:54;12.48;;;2.72;;
44139;SDS011;29803;51.048;4.686;2023-10-19T11:26:24;16.92;;;3.80;;
44139;SDS011;29803;51.048;4.686;2023-10-19T11:29:02;12.20;;;2.47;;
44139;SDS011;29803;51.048;4.686;2023-10-19T11:31:57;12.10;;;2.40;;
44139;SDS011;29803;51.048;4.686;2023-10-19T11:34:29;17.95;;;2.63;;
44139;SDS011;29803;51.048;4.686;2023-10-19T11:37:00;17.48;;;3.25;;
44139;SDS011;29803;51.048;4.686;2023-10-19T11:39:33;14.85;;;2.47;;
44139;SDS011;29803;51.048;4.686;2023-10-19T11:42:03;12.05;;;2.58;;
44139;SDS011;29803;51.048;4.686;2023-10-19T11:44:34;15.95;;;3.08;;
44139;SDS011;29803;51.048;4.686;2023-10-19T11:47:06;13.55;;;3.25;;
44139;SDS011;29803;51.048;4.686;2023-10-19T11:49:37;16.02;;;3.10;;
44139;SDS011;29803;51.048;4.686;2023-10-19T11:52:08;20.88;;;4.10;;
44139;SDS011;29803;51.048;4.686;2023-10-19T11:54:38;13.38;;;2.85;;
44139;SDS011;29803;51.048;4.686;2023-10-19T11:57:09;28.52;;;4.15;;
44139;SDS011;29803;51.048;4.686;2023-10-19T11:59:40;19.20;;;3.13;;
44139;SDS011;29803;51.048;4.686;2023-10-19T12:02:10;21.05;;;3.47;;
44139;SDS011;29803;51.048;4.686;2023-10-19T12:04:41;13.38;;;2.90;;
44139;SDS011;29803;51.048;4.686;2023-10-19T12:07:13;15.88;;;3.28;;
44139;SDS011;29803;51.048;4.686;2023-10-19T12:09:43;16.48;;;3.10;;
44139;SDS011;29803;51.048;4.686;2023-10-19T12:12:14;10.77;;;2.40;;
44139;SDS011;29803;51.048;4.686;2023-10-19T12:14:45;15.10;;;2.95;;
44139;SDS011;29803;51.048;4.686;2023-10-19T12:17:16;18.75;;;3.00;;
44139;SDS011;29803;51.048;4.686;2023-10-19T12:19:47;21.20;;;3.13;;
44139;SDS011;29803;51.048;4.686;2023-10-19T12:22:18;18.58;;;3.20;;
44139;SDS011;29803;51.048;4.686;2023-10-19T12:24:49;20.67;;;3.33;;
44139;SDS011;29803;51.048;4.686;2023-10-19T12:27:21;16.25;;;2.97;;
44139;SDS011;29803;51.048;4.686;2023-10-19T12:29:54;13.43;;;2.50;;
44139;SDS011;29803;51.048;4.686;2023-10-19T12:32:25;12.57;;;2.78;;
44139;SDS011;29803;51.048;4.686;2023-10-19T12:34:56;14.75;;;3.08;;
44139;SDS011;29803;51.048;4.686;2023-10-19T12:37:28;14.95;;;2.88;;
44139;SDS011;29803;51.048;4.686;2023-10-19T12:39:58;9.40;;;2.55;;
44139;SDS011;29803;51.048;4.686;2023-10-19T12:42:29;13.15;;;2.90;;
44139;SDS011;29803;51.048;4.686;2023-10-19T12:45:00;9.73;;;2.55;;
44139;SDS011;29803;51.048;4.686;2023-10-19T12:47:30;13.77;;;2.42;;
44139;SDS011;29803;51.048;4.686;2023-10-19T12:50:01;13.68;;;2.35;;
44139;SDS011;29803;51.048;4.686;2023-10-19T12:52:31;10.60;;;2.80;;
44139;SDS011;29803;51.048;4.686;2023-10-19T12:55:06;12.18;;;2.72;;
44139;SDS011;29803;51.048;4.686;2023-10-19T12:57:37;11.35;;;2.30;;
44139;SDS011;29803;51.048;4.686;2023-10-19T13:00:08;12.20;;;2.22;;
44139;SDS011;29803;51.048;4.686;2023-10-19T13:02:54;8.15;;;2.20;;
44139;SDS011;29803;51.048;4.686;2023-10-19T13:05:33;8.85;;;2.90;;
44139;SDS011;29803;51.048;4.686;2023-10-19T13:08:05;11.82;;;2.17;;
44139;SDS011;29803;51.048;4.686;2023-10-19T13:10:37;16.10;;;2.60;;
44139;SDS011;29803;51.048;4.686;2023-10-19T13:13:10;7.32;;;2.10;;
44139;SDS011;29803;51.048;4.686;2023-10-19T13:15:42;6.22;;;1.70;;
44139;SDS011;29803;51.048;4.686;2023-10-19T13:18:15;11.68;;;2.03;;
44139;SDS011;29803;51.048;4.686;2023-10-19T13:20:49;4.70;;;1.67;;
44139;SDS011;29803;51.048;4.686;2023-10-19T13:23:20;8.98;;;1.65;;
44139;SDS011;29803;51.048;4.686;2023-10-19T13:25:51;11.93;;;2.13;;
44139;SDS011;29803;51.048;4.686;2023-10-19T13:28:23;7.53;;;2.08;;
44139;SDS011;29803;51.048;4.686;2023-10-19T13:30:54;7.45;;;2.30;;
44139;SDS011;29803;51.048;4.686;2023-10-19T13:33:25;6.32;;;1.60;;
44139;SDS011;29803;51.048;4.686;2023-10-19T13:35:55;4.60;;;1.38;;
44139;SDS011;29803;51.048;4.686;2023-10-19T13:38:26;5.38;;;1.65;;
44139;SDS011;29803;51.048;4.686;2023-10-19T13:40:56;3.72;;;1.10;;
44139;SDS011;29803;51.048;4.686;2023-10-19T13:43:26;7.68;;;1.45;;
44139;SDS011;29803;51.048;4.686;2023-10-19T13:45:57;3.85;;;1.23;;
44139;SDS011;29803;51.048;4.686;2023-10-19T13:48:28;7.45;;;1.23;;
44139;SDS011;29803;51.048;4.686;2023-10-19T13:51:02;3.88;;;0.98;;
44139;SDS011;29803;51.048;4.686;2023-10-19T13:53:42;2.90;;;1.00;;
44139;SDS011;29803;51.048;4.686;2023-10-19T13:56:15;3.92;;;0.90;;
44139;SDS011;29803;51.048;4.686;2023-10-19T13:58:46;3.45;;;1.00;;
44139;SDS011;29803;51.048;4.686;2023-10-19T14:01:17;2.88;;;1.10;;
44139;SDS011;29803;51.048;4.686;2023-10-19T14:03:49;4.78;;;1.40;;
44139;SDS011;29803;51.048;4.686;2023-10-19T14:06:24;3.20;;;0.82;;
44139;SDS011;29803;51.048;4.686;2023-10-19T14:08:55;3.90;;;1.05;;
44139;SDS011;29803;51.048;4.686;2023-10-19T14:11:27;4.47;;;1.00;;
44139;SDS011;29803;51.048;4.686;2023-10-19T14:13:57;2.88;;;1.00;;
44139;SDS011;29803;51.048;4.686;2023-10-19T14:16:28;4.32;;;1.05;;
44139;SDS011;29803;51.048;4.686;2023-10-19T14:18:58;2.90;;;1.10;;
44139;SDS011;29803;51.048;4.686;2023-10-19T14:21:29;3.47;;;1.20;;
44139;SDS011;29803;51.048;4.686;2023-10-19T14:24:00;3.38;;;1.20;;
44139;SDS011;29803;51.048;4.686;2023-10-19T14:26:30;1.83;;;1.02;;
44139;SDS011;29803;51.048;4.686;2023-10-19T14:29:01;6.38;;;1.35;;
44139;SDS011;29803;51.048;4.686;2023-10-19T14:31:31;3.67;;;0.90;;
44139;SDS011;29803;51.048;4.686;2023-10-19T14:34:03;3.30;;;1.10;;
44139;SDS011;29803;51.048;4.686;2023-10-19T14:36:33;2.15;;;1.00;;
44139;SDS011;29803;51.048;4.686;2023-10-19T14:39:04;5.13;;;0.90;;
44139;SDS011;29803;51.048;4.686;2023-10-19T14:41:35;6.65;;;1.25;;
44139;SDS011;29803;51.048;4.686;2023-10-19T14:44:06;4.28;;;1.00;;
44139;SDS011;29803;51.048;4.686;2023-10-19T14:46:37;2.83;;;1.00;;
44139;SDS011;29803;51.048;4.686;2023-10-19T14:49:08;5.60;;;1.38;;
44139;SDS011;29803;51.048;4.686;2023-10-19T14:51:38;4.30;;;0.98;;
44139;SDS011;29803;51.048;4.686;2023-10-19T14:54:09;3.47;;;0.90;;
44139;SDS011;29803;51.048;4.686;2023-10-19T14:56:41;9.50;;;1.35;;
44139;SDS011;29803;51.048;4.686;2023-10-19T14:59:12;6.07;;;1.35;;
44139;SDS011;29803;51.048;4.686;2023-10-19T15:01:43;2.90;;;0.80;;
44139;SDS011;29803;51.048;4.686;2023-10-19T15:04:14;4.00;;;0.95;;
44139;SDS011;29803;51.048;4.686;2023-10-19T15:06:44;2.83;;;0.88;;
44139;SDS011;29803;51.048;4.686;2023-10-19T15:09:15;5.25;;;1.10;;
44139;SDS011;29803;51.048;4.686;2023-10-19T15:11:50;3.63;;;0.77;;
44139;SDS011;29803;51.048;4.686;2023-10-19T15:14:21;4.78;;;1.10;;
44139;SDS011;29803;51.048;4.686;2023-10-19T15:16:51;5.45;;;0.98;;
44139;SDS011;29803;51.048;4.686;2023-10-19T15:19:22;3.22;;;1.10;;
44139;SDS011;29803;51.048;4.686;2023-10-19T15:21:52;5.47;;;1.00;;
44139;SDS011;29803;51.048;4.686;2023-10-19T15:24:23;2.72;;;1.02;;